createdAt,value
2022-12-19T00:00:10.465Z,25.77
2022-12-19T00:03:02.622Z,24.48
2022-12-19T00:05:29.816Z,25.02
2022-12-19T00:07:57.250Z,24.60
2022-12-19T00:10:26.011Z,22.77
2022-12-19T00:12:53.171Z,24.33
2022-12-19T00:15:20.160Z,25.02
2022-12-19T00:17:47.355Z,24.15
2022-12-19T00:20:15.955Z,24.88
2022-12-19T00:22:46.416Z,24.80
2022-12-19T00:25:13.455Z,24.52
2022-12-19T00:27:41.639Z,25.90
2022-12-19T00:30:09.934Z,25.00
2022-12-19T00:32:38.025Z,25.60
2022-12-19T00:35:05.436Z,26.33
2022-12-19T00:37:35.093Z,26.90
2022-12-19T00:40:04.452Z,28.13
2022-12-19T00:42:31.608Z,28.52
2022-12-19T00:44:58.560Z,28.40
2022-12-19T00:47:26.823Z,27.90
2022-12-19T00:49:53.816Z,28.95
2022-12-19T00:52:21.961Z,30.02
2022-12-19T00:54:50.571Z,29.65
2022-12-19T00:57:19.888Z,31.25
2022-12-19T00:59:47.024Z,30.42
2022-12-19T01:02:14.332Z,30.80
2022-12-19T01:04:41.994Z,31.35
2022-12-19T01:07:13.008Z,32.28
2022-12-19T01:09:40.109Z,33.30
2022-12-19T01:12:29.881Z,32.95
2022-12-19T01:15:04.481Z,31.70
2022-12-19T01:17:37.780Z,32.20
2022-12-19T01:20:21.368Z,28.63
2022-12-19T01:22:59.921Z,28.10
2022-12-19T01:25:28.322Z,29.40
2022-12-19T01:27:57.310Z,30.35
2022-12-19T01:30:25.212Z,29.70
2022-12-19T01:32:53.808Z,28.83
2022-12-19T01:35:21.673Z,28.63
2022-12-19T01:38:07.627Z,29.10
2022-12-19T01:40:36.893Z,27.90
2022-12-19T01:43:04.931Z,27.70
2022-12-19T01:45:36.603Z,29.30
2022-12-19T01:48:15.842Z,29.17
2022-12-19T01:51:04.026Z,28.50
2022-12-19T01:53:49.753Z,28.55
2022-12-19T01:56:29.216Z,26.77
2022-12-19T01:59:06.503Z,27.10
2022-12-19T02:01:47.689Z,26.63
2022-12-19T02:04:26.272Z,28.45
2022-12-19T02:06:59.461Z,28.63
2022-12-19T02:09:33.460Z,26.50
2022-12-19T02:12:01.103Z,28.08
2022-12-19T02:14:29.630Z,27.77
2022-12-19T02:17:32.841Z,29.48
2022-12-19T02:20:25.137Z,27.08
2022-12-19T02:23:00.968Z,26.98
2022-12-19T02:25:46.899Z,28.52
2022-12-19T02:28:50.246Z,27.15
2022-12-19T02:31:48.054Z,27.50
2022-12-19T02:34:44.689Z,28.05
2022-12-19T02:37:48.119Z,27.02
2022-12-19T02:40:39.286Z,27.40
2022-12-19T02:43:10.388Z,28.20
2022-12-19T02:45:39.827Z,28.85
2022-12-19T02:48:09.262Z,28.30
2022-12-19T02:50:45.341Z,28.90
2022-12-19T02:53:16.179Z,27.80
2022-12-19T02:56:10.381Z,27.65
2022-12-19T02:59:12.904Z,28.02
2022-12-19T03:02:07.866Z,28.23
2022-12-19T03:05:02.819Z,27.40
2022-12-19T03:08:05.992Z,28.83
2022-12-19T03:10:43.643Z,28.10
2022-12-19T03:13:50.306Z,28.40
2022-12-19T03:16:17.716Z,28.73
2022-12-19T03:18:45.479Z,26.95
2022-12-19T03:21:37.027Z,27.83
2022-12-19T03:24:08.007Z,28.25
2022-12-19T03:26:43.377Z,28.58
2022-12-19T03:29:59.590Z,28.60
2022-12-19T03:32:30.501Z,28.25
2022-12-19T03:35:04.447Z,29.33
2022-12-19T03:37:39.499Z,28.05
2022-12-19T03:40:17.315Z,27.45
2022-12-19T03:43:07.700Z,28.60
2022-12-19T03:45:44.737Z,28.42
2022-12-19T03:48:38.754Z,28.38
2022-12-19T03:51:29.133Z,28.48
2022-12-19T03:54:08.590Z,27.77
2022-12-19T03:56:44.667Z,27.48
2022-12-19T03:59:22.652Z,27.65
2022-12-19T04:01:53.911Z,26.80
2022-12-19T04:04:24.038Z,27.63
2022-12-19T04:06:52.988Z,26.73
2022-12-19T04:09:23.954Z,27.63
2022-12-19T04:12:00.198Z,27.58
2022-12-19T04:14:33.499Z,26.92
2022-12-19T04:17:31.172Z,27.40
2022-12-19T04:20:06.241Z,28.38
2022-12-19T04:23:07.894Z,28.98
2022-12-19T04:25:45.365Z,29.92
2022-12-19T04:28:26.996Z,28.48
2022-12-19T04:30:55.002Z,28.42
2022-12-19T04:33:22.149Z,29.42
2022-12-19T04:35:49.488Z,28.02
2022-12-19T04:38:16.767Z,26.90
2022-12-19T04:40:44.291Z,27.83
2022-12-19T04:43:11.176Z,27.60
2022-12-19T04:45:41.995Z,26.25
2022-12-19T04:48:09.749Z,24.77
2022-12-19T04:50:37.266Z,25.02
2022-12-19T04:53:05.499Z,26.25
2022-12-19T04:55:33.215Z,24.95
2022-12-19T04:58:06.967Z,25.25
2022-12-19T05:00:34.591Z,24.95
2022-12-19T05:03:01.768Z,23.20
2022-12-19T05:05:29.755Z,24.27
2022-12-19T05:07:56.646Z,26.05
2022-12-19T05:10:24.082Z,25.27
2022-12-19T05:12:51.121Z,25.08
2022-12-19T05:15:18.531Z,24.42
2022-12-19T05:17:45.427Z,23.73
2022-12-19T05:20:12.820Z,25.17
2022-12-19T05:22:39.775Z,24.23
2022-12-19T05:25:08.109Z,25.45
2022-12-19T05:27:35.274Z,25.48
2022-12-19T05:30:02.693Z,24.98
2022-12-19T05:32:32.219Z,24.48
2022-12-19T05:34:59.444Z,25.30
2022-12-19T05:37:26.606Z,25.63
2022-12-19T05:39:53.883Z,24.75
2022-12-19T05:42:21.059Z,24.65
2022-12-19T05:44:48.296Z,26.70
2022-12-19T05:47:15.199Z,25.65
2022-12-19T05:49:42.526Z,24.92
2022-12-19T05:52:09.471Z,24.58
2022-12-19T05:54:37.099Z,25.58
2022-12-19T05:57:04.295Z,26.13
2022-12-19T05:59:31.603Z,25.55
2022-12-19T06:01:58.557Z,24.90
2022-12-19T06:04:26.922Z,23.67
2022-12-19T06:06:54.052Z,24.45
2022-12-19T06:09:21.291Z,24.85
2022-12-19T06:11:48.578Z,24.95
2022-12-19T06:14:15.909Z,25.67
2022-12-19T06:16:42.900Z,26.02
2022-12-19T06:19:10.179Z,26.92
2022-12-19T06:21:42.242Z,26.20
2022-12-19T06:24:15.139Z,27.48
2022-12-19T06:26:42.279Z,27.80
2022-12-19T06:29:09.742Z,30.15
2022-12-19T06:31:37.000Z,29.08
2022-12-19T06:34:04.303Z,28.27
2022-12-19T06:36:31.606Z,28.08
2022-12-19T06:38:59.312Z,28.10
2022-12-19T06:41:45.891Z,26.60
2022-12-19T06:44:17.418Z,26.05
2022-12-19T06:46:44.720Z,25.17
2022-12-19T06:49:12.422Z,24.70
2022-12-19T06:51:39.500Z,24.35
2022-12-19T06:54:06.834Z,24.67
2022-12-19T06:56:37.056Z,25.02
2022-12-19T06:59:07.101Z,24.75
2022-12-19T07:01:50.557Z,25.00
2022-12-19T07:04:26.666Z,25.23
2022-12-19T07:06:54.313Z,25.38
2022-12-19T07:09:22.427Z,26.48
2022-12-19T07:11:49.574Z,24.98
2022-12-19T07:14:16.754Z,25.58
2022-12-19T07:16:43.873Z,23.55
2022-12-19T07:19:12.452Z,24.15
2022-12-19T07:21:40.261Z,22.88
2022-12-19T07:24:08.908Z,24.40
2022-12-19T07:26:36.259Z,24.55
2022-12-19T07:29:04.510Z,25.92
2022-12-19T07:31:31.525Z,26.13
2022-12-19T07:33:59.260Z,25.63
2022-12-19T07:36:26.546Z,26.98
2022-12-19T07:38:53.799Z,27.40
2022-12-19T07:41:20.847Z,25.70
2022-12-19T07:43:48.282Z,25.33
2022-12-19T07:46:15.326Z,27.50
2022-12-19T07:48:42.861Z,27.38
2022-12-19T07:51:09.897Z,25.92
2022-12-19T07:53:37.162Z,26.23
2022-12-19T07:56:04.255Z,27.38
2022-12-19T07:58:31.822Z,27.27
2022-12-19T08:01:03.463Z,27.42
2022-12-19T08:03:33.379Z,27.25
2022-12-19T08:06:06.745Z,28.40
2022-12-19T08:08:35.303Z,27.35
2022-12-19T08:11:11.049Z,28.35
2022-12-19T08:13:44.645Z,27.85
2022-12-19T08:16:14.406Z,27.63
2022-12-19T08:18:41.714Z,26.83
2022-12-19T08:21:10.764Z,25.42
2022-12-19T08:23:41.305Z,27.30
2022-12-19T08:26:15.376Z,29.67
2022-12-19T08:28:43.410Z,32.53
2022-12-19T08:31:16.840Z,29.30
2022-12-19T08:33:44.454Z,31.30
2022-12-19T08:36:15.106Z,31.25
2022-12-19T08:38:42.454Z,30.73
2022-12-19T08:41:10.282Z,32.88
2022-12-19T08:43:38.335Z,30.75
2022-12-19T08:46:06.254Z,31.90
2022-12-19T08:48:34.299Z,32.67
2022-12-19T08:51:05.661Z,33.75
2022-12-19T08:53:36.699Z,33.23
2022-12-19T08:56:13.932Z,34.05
2022-12-19T08:58:42.335Z,34.50
2022-12-19T09:01:15.180Z,34.83
2022-12-19T09:04:19.096Z,36.30
2022-12-19T09:06:30.028Z,35.20
2022-12-19T09:09:00.198Z,38.00
2022-12-19T09:11:28.313Z,36.22
2022-12-19T09:13:57.999Z,38.47
2022-12-19T09:16:28.366Z,36.90
2022-12-19T09:18:58.777Z,36.58
2022-12-19T09:21:31.887Z,35.78
2022-12-19T09:24:07.134Z,38.60
2022-12-19T09:26:35.785Z,37.55
2022-12-19T09:29:05.028Z,37.08
2022-12-19T09:31:39.516Z,37.47
2022-12-19T09:34:06.830Z,38.10
2022-12-19T09:36:34.508Z,40.80
2022-12-19T09:39:02.186Z,38.85
2022-12-19T09:42:13.812Z,39.13
2022-12-19T09:45:31.799Z,39.42
2022-12-19T09:48:01.562Z,40.40
2022-12-19T09:50:41.173Z,39.42
2022-12-19T09:53:39.187Z,40.42
2022-12-19T09:56:15.794Z,39.65
2022-12-19T09:59:08.548Z,39.35
2022-12-19T10:01:56.204Z,39.38
2022-12-19T10:04:28.110Z,38.63
2022-12-19T10:07:11.272Z,38.28
2022-12-19T10:12:25.380Z,38.50
2022-12-19T10:13:12.944Z,38.95
2022-12-19T10:16:03.759Z,37.55
2022-12-19T10:18:57.055Z,36.65
2022-12-19T10:22:18.354Z,36.28
2022-12-19T10:25:12.076Z,34.95
2022-12-19T10:27:59.183Z,36.63
2022-12-19T10:30:36.518Z,34.70
2022-12-19T10:33:49.964Z,33.80
2022-12-19T10:36:17.407Z,34.20
2022-12-19T10:39:22.429Z,33.30
2022-12-19T10:41:58.731Z,32.05
2022-12-19T10:44:54.082Z,32.85
2022-12-19T10:48:00.532Z,34.53
2022-12-19T10:50:30.717Z,33.17
2022-12-19T11:26:14.601Z,27.00
2022-12-19T11:29:32.821Z,24.92
2022-12-19T11:32:42.859Z,24.40
2022-12-19T11:35:24.270Z,25.10
2022-12-19T11:38:06.653Z,23.83
2022-12-19T11:40:48.561Z,23.57
2022-12-19T11:43:45.420Z,22.60
2022-12-19T11:46:26.095Z,21.65
2022-12-19T11:49:10.027Z,22.00
2022-12-19T11:52:03.188Z,21.08
2022-12-19T11:54:36.519Z,20.52
2022-12-19T11:57:03.978Z,21.00
2022-12-19T11:59:36.355Z,19.83
2022-12-19T12:02:18.702Z,19.85
2022-12-19T12:05:26.598Z,19.77
2022-12-19T12:10:07.729Z,19.85
2022-12-19T12:28:51.555Z,18.85
2022-12-19T12:31:01.887Z,20.13
2022-12-19T12:31:39.983Z,20.05
2022-12-19T12:31:43.766Z,19.33
2022-12-19T12:32:02.998Z,20.65
2022-12-19T12:32:04.344Z,20.05
2022-12-19T12:35:42.534Z,20.00
2022-12-19T12:40:53.570Z,18.80
2022-12-19T12:43:35.963Z,19.17
2022-12-19T12:46:12.886Z,18.55
2022-12-19T12:48:57.181Z,18.55
2022-12-19T12:51:26.560Z,18.45
2022-12-19T12:54:07.734Z,18.88
2022-12-19T12:56:37.166Z,18.25
2022-12-19T12:59:26.488Z,17.52
2022-12-19T13:01:59.918Z,17.92
2022-12-19T13:04:43.408Z,17.40
2022-12-19T13:07:30.463Z,16.95
2022-12-19T13:10:13.015Z,17.05
2022-12-19T13:15:47.230Z,15.68
2022-12-19T13:18:37.826Z,15.95
2022-12-19T13:21:08.896Z,14.65
2022-12-19T13:23:36.136Z,14.88
2022-12-19T13:26:04.183Z,14.73
2022-12-19T13:28:31.423Z,13.38
2022-12-19T13:31:18.480Z,14.85
2022-12-19T13:33:51.941Z,13.48
2022-12-19T13:39:50.089Z,14.70
2022-12-19T13:40:20.332Z,14.05
2022-12-19T13:43:25.817Z,15.10
2022-12-19T13:46:29.213Z,24.40
2022-12-19T13:49:12.310Z,20.08
2022-12-19T13:51:48.755Z,16.38
2022-12-19T13:54:50.453Z,23.00
2022-12-19T13:57:29.057Z,18.13
2022-12-19T14:00:08.155Z,18.10
2022-12-19T14:02:46.327Z,18.30
2022-12-19T14:05:44.534Z,18.67
2022-12-19T14:08:25.175Z,18.23
2022-12-19T14:11:43.068Z,17.15
2022-12-19T14:14:29.638Z,16.88
2022-12-19T14:17:13.440Z,18.30
2022-12-19T14:19:45.958Z,19.25
2022-12-19T14:22:25.171Z,17.67
2022-12-19T14:24:54.440Z,17.88
2022-12-19T14:28:17.072Z,17.33
2022-12-19T14:30:34.932Z,18.00
2022-12-19T14:33:43.766Z,18.83
2022-12-19T14:36:15.204Z,17.40
2022-12-19T14:39:23.171Z,19.05
2022-12-19T14:42:04.950Z,17.55
2022-12-19T14:51:25.113Z,17.58
2022-12-19T14:54:04.575Z,16.60
2022-12-19T14:54:28.280Z,17.35
2022-12-19T14:54:50.653Z,17.00
2022-12-19T14:59:46.233Z,17.13
2022-12-19T15:02:32.571Z,16.33
2022-12-19T15:05:14.062Z,16.65
2022-12-19T15:07:49.598Z,16.77
2022-12-19T15:11:00.652Z,15.63
2022-12-19T15:14:53.595Z,15.40
2022-12-19T15:16:29.022Z,15.85
2022-12-19T15:19:04.491Z,15.80
2022-12-19T15:21:32.183Z,16.08
2022-12-19T15:23:59.118Z,14.57
2022-12-19T15:26:34.697Z,15.23
2022-12-19T15:29:06.787Z,15.02
2022-12-19T15:31:41.344Z,14.93
2022-12-19T15:34:41.601Z,14.75
2022-12-19T15:37:17.007Z,15.23
2022-12-19T15:39:45.249Z,15.23
2022-12-19T15:42:27.149Z,15.40
2022-12-19T15:44:58.112Z,15.23
2022-12-19T15:47:37.131Z,15.32
2022-12-19T15:50:28.376Z,17.70
2022-12-19T15:52:59.483Z,19.13
2022-12-19T15:55:30.583Z,21.23
2022-12-19T15:58:06.162Z,22.15
2022-12-19T16:00:36.528Z,20.35
2022-12-19T16:05:52.230Z,19.95
2022-12-19T16:08:25.200Z,19.85
2022-12-19T16:11:01.884Z,20.15
2022-12-19T16:13:36.392Z,19.80
2022-12-19T16:16:09.204Z,19.00
2022-12-19T16:18:40.601Z,20.35
2022-12-19T16:21:17.706Z,20.52
2022-12-19T16:23:44.955Z,20.20
2022-12-19T16:26:34.389Z,20.70
2022-12-19T16:29:02.402Z,21.25
2022-12-19T16:31:29.639Z,20.48
2022-12-19T16:33:57.287Z,20.95
2022-12-19T16:36:24.399Z,19.60
2022-12-19T16:38:51.807Z,20.55
2022-12-19T16:41:25.131Z,21.27
2022-12-19T16:43:53.029Z,20.27
2022-12-19T16:46:23.710Z,21.35
2022-12-19T16:48:51.132Z,20.27
2022-12-19T16:51:24.132Z,21.20
2022-12-19T16:53:54.494Z,21.85
2022-12-19T16:56:38.538Z,21.15
2022-12-19T16:59:20.952Z,22.27
2022-12-19T17:01:49.118Z,20.80
2022-12-19T17:04:21.573Z,21.98
2022-12-19T17:06:50.560Z,21.42
2022-12-19T17:09:23.304Z,21.92
2022-12-19T17:11:59.782Z,22.15
2022-12-19T17:14:34.438Z,22.25
2022-12-19T17:17:01.691Z,22.85
2022-12-19T17:19:38.573Z,21.20
2022-12-19T17:22:18.676Z,21.52
2022-12-19T17:24:48.337Z,22.90
2022-12-19T17:27:17.342Z,21.33
2022-12-19T17:29:45.547Z,24.52
2022-12-19T17:32:23.280Z,26.13
2022-12-19T17:34:52.665Z,24.65
2022-12-19T17:37:19.812Z,24.60
2022-12-19T17:39:48.393Z,23.65
2022-12-19T17:42:24.643Z,24.25
2022-12-19T17:44:52.245Z,24.33
2022-12-19T17:47:20.943Z,24.33
2022-12-19T17:49:49.515Z,23.67
2022-12-19T17:52:19.844Z,26.02
2022-12-19T17:54:47.302Z,24.35
2022-12-19T17:57:16.528Z,25.92
2022-12-19T17:59:46.512Z,25.85
2022-12-19T18:02:25.121Z,25.33
2022-12-19T18:04:53.949Z,27.00
2022-12-19T18:07:21.253Z,26.55
2022-12-19T18:09:48.953Z,26.80
2022-12-19T18:12:16.165Z,27.67
2022-12-19T18:14:43.526Z,28.58
2022-12-19T18:17:23.841Z,28.90
2022-12-19T18:19:51.783Z,29.05
2022-12-19T18:22:18.679Z,28.70
2022-12-19T18:24:46.099Z,29.60
2022-12-19T18:27:14.130Z,30.15
2022-12-19T18:29:41.449Z,30.75
2022-12-19T18:32:19.298Z,30.02
2022-12-19T18:34:46.757Z,31.00
2022-12-19T18:37:15.897Z,30.15
2022-12-19T18:39:43.211Z,28.42
2022-12-19T18:42:20.615Z,30.25
2022-12-19T18:44:48.044Z,30.70
2022-12-19T18:47:23.474Z,30.10
2022-12-19T18:49:52.244Z,30.23
2022-12-19T18:52:19.212Z,29.35
2022-12-19T18:54:46.451Z,29.70
2022-12-19T18:57:14.528Z,31.05
2022-12-19T18:59:41.806Z,30.02
2022-12-19T19:02:41.828Z,30.27
2022-12-19T19:05:16.989Z,29.63
2022-12-19T19:07:44.896Z,29.30
2022-12-19T19:10:41.790Z,30.00
2022-12-19T19:13:13.012Z,31.20
2022-12-19T19:15:57.462Z,30.02
2022-12-19T19:18:29.800Z,32.05
2022-12-19T19:21:01.273Z,31.90
2022-12-19T19:23:56.709Z,32.38
2022-12-19T19:26:24.205Z,32.60
2022-12-19T19:28:52.685Z,33.35
2022-12-19T19:31:26.528Z,35.45
2022-12-19T19:34:02.939Z,35.10
2022-12-19T19:36:35.858Z,34.83
2022-12-19T19:41:34.134Z,33.90
2022-12-19T19:44:02.327Z,36.10
2022-12-19T19:46:29.652Z,34.85
2022-12-19T19:48:57.155Z,37.10
2022-12-19T19:51:24.840Z,36.53
2022-12-19T19:53:51.964Z,36.50
2022-12-19T19:56:19.416Z,38.40
2022-12-19T19:58:46.534Z,37.47
2022-12-19T20:01:14.500Z,38.88
2022-12-19T20:03:42.968Z,38.60
2022-12-19T20:06:11.057Z,37.08
2022-12-19T20:08:40.051Z,37.60
2022-12-19T20:11:10.462Z,38.35
2022-12-19T20:13:38.487Z,39.28
2022-12-19T20:16:12.675Z,38.92
2022-12-19T20:18:45.925Z,39.17
2022-12-19T20:21:14.025Z,39.08
2022-12-19T20:23:43.267Z,40.08
2022-12-19T20:26:16.244Z,41.38
2022-12-19T20:31:23.497Z,38.50
2022-12-19T20:33:53.065Z,41.80
2022-12-19T20:36:21.608Z,40.33
2022-12-19T20:38:49.413Z,40.92
2022-12-19T20:41:17.984Z,40.60
2022-12-19T20:43:45.440Z,39.53
2022-12-19T20:46:17.794Z,39.55
2022-12-19T20:48:46.863Z,37.05
2022-12-19T20:51:16.175Z,39.20
2022-12-19T20:53:43.497Z,39.72
2022-12-19T20:56:18.030Z,39.75
2022-12-19T20:58:46.387Z,38.88
2022-12-19T21:01:22.589Z,38.60
2022-12-19T21:03:50.550Z,38.33
2022-12-19T21:06:20.567Z,38.55
2022-12-19T21:08:47.956Z,40.20
2022-12-19T21:11:15.921Z,40.13
2022-12-19T21:13:44.561Z,39.13
2022-12-19T21:16:17.638Z,39.05
2022-12-19T21:18:47.199Z,40.45
2022-12-19T21:21:20.124Z,40.70
2022-12-19T21:26:15.186Z,38.13
2022-12-19T21:28:43.008Z,39.70
2022-12-19T21:31:23.500Z,39.95
2022-12-19T21:33:54.199Z,39.80
2022-12-19T21:36:24.085Z,39.00
2022-12-19T21:38:56.268Z,39.22
2022-12-19T21:41:24.017Z,39.00
2022-12-19T21:43:55.438Z,39.53
2022-12-19T21:46:26.842Z,40.72
2022-12-19T21:48:56.463Z,40.40
2022-12-19T21:51:28.658Z,41.88
2022-12-19T21:54:00.434Z,41.60
2022-12-19T21:56:32.075Z,33.28
2022-12-19T21:59:03.287Z,40.22
2022-12-19T22:01:31.739Z,42.28
2022-12-19T22:04:02.102Z,42.90
2022-12-19T22:06:32.408Z,41.88
2022-12-19T22:09:00.986Z,42.65
2022-12-19T22:11:30.168Z,42.60
2022-12-19T22:14:00.667Z,42.45
2022-12-19T22:16:29.352Z,42.35
2022-12-19T22:18:56.789Z,41.15
2022-12-19T22:21:25.541Z,42.17
2022-12-19T22:23:57.517Z,40.35
2022-12-19T22:26:27.652Z,41.10
2022-12-19T22:28:56.861Z,39.67
2022-12-19T22:31:30.087Z,39.50
2022-12-19T22:34:01.435Z,40.55
2022-12-19T22:36:31.902Z,40.58
2022-12-19T22:39:02.042Z,39.00
2022-12-19T22:41:30.309Z,39.22
2022-12-19T22:43:57.360Z,40.97
2022-12-19T22:46:28.401Z,41.38
2022-12-19T22:48:58.703Z,41.58
2022-12-19T22:51:28.416Z,42.40
2022-12-19T22:53:56.375Z,41.88
2022-12-19T22:56:28.015Z,41.83
2022-12-19T22:58:59.937Z,43.47
2022-12-19T23:01:32.424Z,43.20
2022-12-19T23:04:02.410Z,43.00
2022-12-19T23:06:33.485Z,44.05
2022-12-19T23:09:01.566Z,43.50
2022-12-19T23:11:34.082Z,43.47
2022-12-19T23:14:03.633Z,41.70
2022-12-19T23:16:30.893Z,41.55
2022-12-19T23:18:58.331Z,41.85
2022-12-19T23:21:26.530Z,43.03
2022-12-19T23:23:55.700Z,42.58
2022-12-19T23:26:26.455Z,43.97
2022-12-19T23:29:05.394Z,42.03
2022-12-19T23:39:18.564Z,42.88
2022-12-19T23:41:45.661Z,44.30
2022-12-19T23:44:13.301Z,43.08
2022-12-19T23:46:40.240Z,42.42
2022-12-19T23:49:07.948Z,42.22
2022-12-19T23:51:35.151Z,42.15
2022-12-19T23:54:02.584Z,43.10
2022-12-19T23:56:32.491Z,43.72
2022-12-19T23:59:00.297Z,44.65
